sensor_id;sensor_type;location;lat;lon;timestamp;pressure;altitude;pressure_sealevel;temperature;humidity
36354;BME280;22383;51.114;13.666;2023-03-15T00:02:00;67193.03;;;-0.03;100.00
36354;BME280;22383;51.114;13.666;2023-03-15T00:04:29;67194.50;;;-0.04;100.00
36354;BME280;22383;51.114;13.666;2023-03-15T00:06:59;67132.75;;;-0.15;100.00
36354;BME280;22383;51.114;13.666;2023-03-15T00:09:28;67172.97;;;-0.26;100.00
36354;BME280;22383;51.114;13.666;2023-03-15T00:11:56;67166.06;;;-0.27;100.00
36354;BME280;22383;51.114;13.666;2023-03-15T00:14:25;67167.19;;;-0.26;100.00
36354;BME280;22383;51.114;13.666;2023-03-15T00:16:52;67121.31;;;-0.28;100.00
36354;BME280;22383;51.114;13.666;2023-03-15T00:19:22;67172.59;;;-0.24;100.00
36354;BME280;22383;51.114;13.666;2023-03-15T00:21:50;67179.69;;;-0.20;100.00
36354;BME280;22383;51.114;13.666;2023-03-15T00:24:18;67167.59;;;-0.21;100.00
36354;BME280;22383;51.114;13.666;2023-03-15T00:26:46;67163.81;;;-0.29;100.00
36354;BME280;22383;51.114;13.666;2023-03-15T00:29:14;67172.25;;;-0.22;100.00
36354;BME280;22383;51.114;13.666;2023-03-15T00:31:43;67177.09;;;-0.20;100.00
36354;BME280;22383;51.114;13.666;2023-03-15T00:34:10;67125.25;;;-0.24;100.00
36354;BME280;22383;51.114;13.666;2023-03-15T00:36:39;67172.03;;;-0.24;100.00
36354;BME280;22383;51.114;13.666;2023-03-15T00:39:10;67171.69;;;-0.22;100.00
36354;BME280;22383;51.114;13.666;2023-03-15T00:41:38;67180.81;;;-0.18;100.00
36354;BME280;22383;51.114;13.666;2023-03-15T00:44:06;67171.69;;;-0.22;100.00
36354;BME280;22383;51.114;13.666;2023-03-15T00:46:34;67179.75;;;-0.12;100.00
36354;BME280;22383;51.114;13.666;2023-03-15T00:49:02;67178.78;;;-0.18;100.00
36354;BME280;22383;51.114;13.666;2023-03-15T00:51:30;67179.34;;;-0.17;100.00
36354;BME280;22383;51.114;13.666;2023-03-15T00:53:58;67174.84;;;-0.22;100.00
36354;BME280;22383;51.114;13.666;2023-03-15T00:56:26;67139.28;;;-0.11;100.00
36354;BME280;22383;51.114;13.666;2023-03-15T00:58:57;67174.72;;;-0.17;100.00
36354;BME280;22383;51.114;13.666;2023-03-15T01:01:26;67124.13;;;-0.25;100.00
36354;BME280;22383;51.114;13.666;2023-03-15T01:03:54;67165.66;;;-0.32;100.00
36354;BME280;22383;51.114;13.666;2023-03-15T01:06:26;67160.44;;;-0.32;100.00
36354;BME280;22383;51.114;13.666;2023-03-15T01:08:54;67172.25;;;-0.22;100.00
36354;BME280;22383;51.114;13.666;2023-03-15T01:11:25;67180.09;;;-0.14;100.00
36354;BME280;22383;51.114;13.666;2023-03-15T01:13:56;67175.41;;;-0.21;100.00
36354;BME280;22383;51.114;13.666;2023-03-15T01:16:26;67162.50;;;-0.33;100.00
36354;BME280;22383;51.114;13.666;2023-03-15T01:18:54;67155.19;;;-0.40;100.00
36354;BME280;22383;51.114;13.666;2023-03-15T01:21:22;67154.84;;;-0.38;100.00
36354;BME280;22383;51.114;13.666;2023-03-15T01:23:50;67163.06;;;-0.32;100.00
36354;BME280;22383;51.114;13.666;2023-03-15T01:26:21;67166.44;;;-0.29;100.00
36354;BME280;22383;51.114;13.666;2023-03-15T01:28:49;67177.09;;;-0.20;100.00
36354;BME280;22383;51.114;13.666;2023-03-15T01:31:27;67120.41;;;-0.26;100.00
36354;BME280;22383;51.114;13.666;2023-03-15T01:33:56;67161.78;;;-0.29;100.00
36354;BME280;22383;51.114;13.666;2023-03-15T01:36:27;67167.75;;;-0.26;100.00
36354;BME280;22383;51.114;13.666;2023-03-15T01:39:33;67118.50;;;-0.30;100.00
36354;BME280;22383;51.114;13.666;2023-03-15T01:46:33;67154.06;;;-0.41;100.00
36354;BME280;22383;51.114;13.666;2023-03-15T01:49:24;67155.75;;;-0.39;100.00
36354;BME280;22383;51.114;13.666;2023-03-15T01:52:01;67156.31;;;-0.39;100.00
36354;BME280;22383;51.114;13.666;2023-03-15T01:57:12;67168.47;;;-0.30;100.00
36354;BME280;22383;51.114;13.666;2023-03-15T01:59:45;67123.56;;;-0.26;100.00
36354;BME280;22383;51.114;13.666;2023-03-15T02:02:14;67155.97;;;-0.36;100.00
36354;BME280;22383;51.114;13.666;2023-03-15T02:04:47;67158.75;;;-0.34;100.00
36354;BME280;22383;51.114;13.666;2023-03-15T02:07:19;67152.78;;;-0.37;100.00
36354;BME280;22383;51.114;13.666;2023-03-15T02:10:02;67157.22;;;-0.40;100.00
36354;BME280;22383;51.114;13.666;2023-03-15T02:12:37;67150.13;;;-0.44;100.00
36354;BME280;22383;51.114;13.666;2023-03-15T02:15:07;67149.22;;;-0.43;100.00
36354;BME280;22383;51.114;13.666;2023-03-15T02:17:38;67142.25;;;-0.51;100.00
36354;BME280;22383;51.114;13.666;2023-03-15T02:26:06;67138.34;;;-0.55;100.00
36354;BME280;22383;51.114;13.666;2023-03-15T02:28:11;67135.19;;;-0.55;100.00
36354;BME280;22383;51.114;13.666;2023-03-15T02:30:40;67137.78;;;-0.55;100.00
36354;BME280;22383;51.114;13.666;2023-03-15T02:33:21;67094.38;;;-0.52;100.00
36354;BME280;22383;51.114;13.666;2023-03-15T02:35:53;67141.34;;;-0.50;100.00
36354;BME280;22383;51.114;13.666;2023-03-15T02:38:20;67142.47;;;-0.49;100.00
36354;BME280;22383;51.114;13.666;2023-03-15T02:40:51;67144.50;;;-0.49;100.00
36354;BME280;22383;51.114;13.666;2023-03-15T02:43:23;67102.22;;;-0.45;100.00
36354;BME280;22383;51.114;13.666;2023-03-15T02:45:53;67097.19;;;-0.50;100.00
36354;BME280;22383;51.114;13.666;2023-03-15T02:48:21;67137.78;;;-0.55;100.00
36354;BME280;22383;51.114;13.666;2023-03-15T02:50:51;67140.56;;;-0.53;100.00
36354;BME280;22383;51.114;13.666;2023-03-15T02:53:19;67086.72;;;-0.57;100.00
36354;BME280;22383;51.114;13.666;2023-03-15T02:55:46;67136.88;;;-0.54;100.00
36354;BME280;22383;51.114;13.666;2023-03-15T02:58:14;67137.78;;;-0.55;100.00
36354;BME280;22383;51.114;13.666;2023-03-15T03:00:41;67135.88;;;-0.60;100.00
36354;BME280;22383;51.114;13.666;2023-03-15T03:03:08;67125.28;;;-0.62;100.00
36354;BME280;22383;51.114;13.666;2023-03-15T03:05:36;67127.66;;;-0.65;100.00
36354;BME280;22383;51.114;13.666;2023-03-15T03:08:04;67131.59;;;-0.61;100.00
36354;BME280;22383;51.114;13.666;2023-03-15T03:10:32;67140.03;;;-0.53;100.00
36354;BME280;22383;51.114;13.666;2023-03-15T03:13:00;67136.44;;;-0.59;100.00
36354;BME280;22383;51.114;13.666;2023-03-15T03:15:34;67119.22;;;-0.72;100.00
36354;BME280;22383;51.114;13.666;2023-03-15T03:18:02;67080.91;;;-0.65;100.00
36354;BME280;22383;51.114;13.666;2023-03-15T03:20:29;67121.84;;;-0.72;100.00
36354;BME280;22383;51.114;13.666;2023-03-15T03:22:57;67115.31;;;-0.76;100.00
36354;BME280;22383;51.114;13.666;2023-03-15T03:25:24;67119.22;;;-0.72;100.00
36354;BME280;22383;51.114;13.666;2023-03-15T03:27:53;67083.16;;;-0.63;100.00
36354;BME280;22383;51.114;13.666;2023-03-15T03:30:26;67127.31;;;-0.63;100.00
36354;BME280;22383;51.114;13.666;2023-03-15T03:32:53;67134.41;;;-0.59;100.00
36354;BME280;22383;51.114;13.666;2023-03-15T03:35:21;67137.06;;;-0.51;100.00
36354;BME280;22383;51.114;13.666;2023-03-15T03:37:49;67138.34;;;-0.55;100.00
36354;BME280;22383;51.114;13.666;2023-03-15T03:40:25;67136.09;;;-0.57;100.00
36354;BME280;22383;51.114;13.666;2023-03-15T03:42:53;67132.34;;;-0.58;100.00
36354;BME280;22383;51.114;13.666;2023-03-15T03:45:20;67137.78;;;-0.55;100.00
36354;BME280;22383;51.114;13.666;2023-03-15T03:47:51;67135.53;;;-0.58;100.00
36354;BME280;22383;51.114;13.666;2023-03-15T03:50:18;67136.66;;;-0.57;100.00
36354;BME280;22383;51.114;13.666;2023-03-15T03:52:46;67133.63;;;-0.62;100.00
36354;BME280;22383;51.114;13.666;2023-03-15T03:55:20;67131.81;;;-0.59;100.00
36354;BME280;22383;51.114;13.666;2023-03-15T03:57:53;67129.00;;;-0.61;100.00
36354;BME280;22383;51.114;13.666;2023-03-15T04:00:38;67084.25;;;-0.62;100.00
36354;BME280;22383;51.114;13.666;2023-03-15T04:03:07;67121.69;;;-0.68;100.00
36354;BME280;22383;51.114;13.666;2023-03-15T04:05:37;67116.44;;;-0.75;100.00
36354;BME280;22383;51.114;13.666;2023-03-15T04:08:05;67112.72;;;-0.76;100.00
36354;BME280;22383;51.114;13.666;2023-03-15T04:10:38;67110.47;;;-0.78;100.00
36354;BME280;22383;51.114;13.666;2023-03-15T04:13:05;67098.88;;;-0.86;100.00
36354;BME280;22383;51.114;13.666;2023-03-15T04:15:33;67104.66;;;-0.86;100.00
36354;BME280;22383;51.114;13.666;2023-03-15T04:18:04;67100.13;;;-0.90;100.00
36354;BME280;22383;51.114;13.666;2023-03-15T04:20:37;67098.69;;;-0.89;100.00
36354;BME280;22383;51.114;13.666;2023-03-15T04:23:05;67102.97;;;-0.87;100.00
36354;BME280;22383;51.114;13.666;2023-03-15T04:25:57;67049.47;;;-0.93;100.00
36354;BME280;22383;51.114;13.666;2023-03-15T04:28:56;67090.25;;;-0.97;100.00
36354;BME280;22383;51.114;13.666;2023-03-15T04:31:42;67081.97;;;-1.09;100.00
36354;BME280;22383;51.114;13.666;2023-03-15T04:34:28;67093.97;;;-0.96;100.00
36354;BME280;22383;51.114;13.666;2023-03-15T04:37:25;67086.09;;;-1.03;100.00
36354;BME280;22383;51.114;13.666;2023-03-15T04:40:16;67085.19;;;-1.01;100.00
36354;BME280;22383;51.114;13.666;2023-03-15T04:42:53;67093.41;;;-0.96;100.00
36354;BME280;22383;51.114;13.666;2023-03-15T04:45:40;67098.81;;;-0.93;100.00
36354;BME280;22383;51.114;13.666;2023-03-15T04:48:26;67046.09;;;-0.97;100.00
36354;BME280;22383;51.114;13.666;2023-03-15T04:51:12;67092.84;;;-0.97;100.00
36354;BME280;22383;51.114;13.666;2023-03-15T04:53:49;67096.75;;;-0.93;100.00
36354;BME280;22383;51.114;13.666;2023-03-15T04:56:43;67052.84;;;-0.90;100.00
36354;BME280;22383;51.114;13.666;2023-03-15T04:59:28;67040.47;;;-1.02;100.00
36354;BME280;22383;51.114;13.666;2023-03-15T05:02:17;67085.19;;;-1.01;100.00
36354;BME280;22383;51.114;13.666;2023-03-15T05:05:11;67092.84;;;-0.97;100.00
36354;BME280;22383;51.114;13.666;2023-03-15T05:07:52;67093.75;;;-0.98;100.00
36354;BME280;22383;51.114;13.666;2023-03-15T05:10:49;67082.38;;;-1.04;100.00
36354;BME280;22383;51.114;13.666;2023-03-15T05:13:30;67090.41;;;-1.01;100.00
36354;BME280;22383;51.114;13.666;2023-03-15T05:16:18;67092.28;;;-0.97;100.00
36354;BME280;22383;51.114;13.666;2023-03-15T05:18:56;67053.41;;;-0.90;100.00
36354;BME280;22383;51.114;13.666;2023-03-15T05:21:44;67090.59;;;-0.99;100.00
36354;BME280;22383;51.114;13.666;2023-03-15T05:24:34;67045.19;;;-0.95;100.00
36354;BME280;22383;51.114;13.666;2023-03-15T05:27:20;67099.94;;;-0.92;100.00
36354;BME280;22383;51.114;13.666;2023-03-15T05:30:07;67057.69;;;-0.88;100.00
36354;BME280;22383;51.114;13.666;2023-03-15T05:32:53;67048.91;;;-0.94;100.00
36354;BME280;22383;51.114;13.666;2023-03-15T05:35:39;67096.56;;;-0.96;100.00
36354;BME280;22383;51.114;13.666;2023-03-15T05:38:30;67088.34;;;-1.01;100.00
36354;BME280;22383;51.114;13.666;2023-03-15T05:41:16;67080.50;;;-1.08;100.00
36354;BME280;22383;51.114;13.666;2023-03-15T05:44:07;67078.59;;;-1.12;100.00
36354;BME280;22383;51.114;13.666;2023-03-15T05:46:53;67028.72;;;-1.12;100.00
36354;BME280;22383;51.114;13.666;2023-03-15T05:49:47;67082.38;;;-1.04;100.00
36354;BME280;22383;51.114;13.666;2023-03-15T05:52:35;67099.59;;;-0.90;100.00
36354;BME280;22383;51.114;13.666;2023-03-15T05:55:25;67099.03;;;-0.91;100.00
36354;BME280;22383;51.114;13.666;2023-03-15T05:58:13;67053.41;;;-0.90;100.00
36354;BME280;22383;51.114;13.666;2023-03-15T06:00:50;67110.81;;;-0.80;100.00
36354;BME280;22383;51.114;13.666;2023-03-15T06:03:34;67114.41;;;-0.74;100.00
36354;BME280;22383;51.114;13.666;2023-03-15T06:06:10;67122.81;;;-0.67;100.00
36354;BME280;22383;51.114;13.666;2023-03-15T06:08:41;67153.50;;;-0.41;100.00
36354;BME280;22383;51.114;13.666;2023-03-15T06:11:09;67166.63;;;-0.27;100.00
36354;BME280;22383;51.114;13.666;2023-03-15T06:13:37;67169.81;;;-0.26;100.00
36354;BME280;22383;51.114;13.666;2023-03-15T06:16:12;67177.66;;;-0.19;100.00
36354;BME280;22383;51.114;13.666;2023-03-15T06:18:43;67163.81;;;-0.29;100.00
36354;BME280;22383;51.114;13.666;2023-03-15T06:21:11;67107.84;;;-0.40;100.00
36354;BME280;22383;51.114;13.666;2023-03-15T06:23:38;67147.88;;;-0.46;100.00
36354;BME280;22383;51.114;13.666;2023-03-15T06:26:06;67184.94;;;-0.12;100.00
36354;BME280;22383;51.114;13.666;2023-03-15T06:28:34;67201.47;;;0.05;100.00
36354;BME280;22383;51.114;13.666;2023-03-15T06:31:09;67191.72;;;-0.06;100.00
36354;BME280;22383;51.114;13.666;2023-03-15T06:33:46;67188.19;;;-0.05;100.00
36354;BME280;22383;51.114;13.666;2023-03-15T06:36:14;67160.06;;;0.08;100.00
36354;BME280;22383;51.114;13.666;2023-03-15T06:38:41;67220.94;;;0.21;100.00
36354;BME280;22383;51.114;13.666;2023-03-15T06:41:09;67211.94;;;0.12;100.00
36354;BME280;22383;51.114;13.666;2023-03-15T06:43:41;67199.56;;;0.01;100.00
36354;BME280;22383;51.114;13.666;2023-03-15T06:46:09;67207.09;;;0.10;100.00
36354;BME280;22383;51.114;13.666;2023-03-15T06:48:37;67165.69;;;0.13;100.00
36354;BME280;22383;51.114;13.666;2023-03-15T06:51:06;67214.56;;;0.12;100.00
36354;BME280;22383;51.114;13.666;2023-03-15T06:53:33;67216.31;;;0.21;100.00
36354;BME280;22383;51.114;13.666;2023-03-15T06:56:02;67224.84;;;0.24;100.00
36354;BME280;22383;51.114;13.666;2023-03-15T06:58:29;67241.16;;;0.39;100.00
36354;BME280;22383;51.114;13.666;2023-03-15T07:00:58;67259.56;;;0.61;100.00
36354;BME280;22383;51.114;13.666;2023-03-15T07:03:25;67255.63;;;0.57;100.00
36354;BME280;22383;51.114;13.666;2023-03-15T07:05:52;67260.28;;;0.56;100.00
36354;BME280;22383;51.114;13.666;2023-03-15T07:08:22;67261.81;;;0.63;100.00
36354;BME280;22383;51.114;13.666;2023-03-15T07:10:50;67265.34;;;0.61;100.00
36354;BME280;22383;51.114;13.666;2023-03-15T07:13:18;67272.66;;;0.68;100.00
36354;BME280;22383;51.114;13.666;2023-03-15T07:15:53;67280.53;;;0.75;100.00
36354;BME280;22383;51.114;13.666;2023-03-15T07:18:21;67290.66;;;0.84;100.00
36354;BME280;22383;51.114;13.666;2023-03-15T07:20:56;67305.28;;;0.98;100.00
36354;BME280;22383;51.114;13.666;2023-03-15T07:23:24;67326.09;;;1.17;100.00
36354;BME280;22383;51.114;13.666;2023-03-15T07:25:52;67353.66;;;1.42;100.00
36354;BME280;22383;51.114;13.666;2023-03-15T07:28:22;67370.94;;;1.62;100.00
36354;BME280;22383;51.114;13.666;2023-03-15T07:30:54;67384.03;;;1.69;100.00
36354;BME280;22383;51.114;13.666;2023-03-15T07:33:23;67356.25;;;1.42;100.00
36354;BME280;22383;51.114;13.666;2023-03-15T07:35:52;67353.31;;;1.44;100.00
36354;BME280;22383;51.114;13.666;2023-03-15T07:38:24;67375.59;;;1.62;100.00
36354;BME280;22383;51.114;13.666;2023-03-15T07:40:51;67389.66;;;1.75;100.00
36354;BME280;22383;51.114;13.666;2023-03-15T07:43:19;67408.81;;;1.92;100.00
36354;BME280;22383;51.114;13.666;2023-03-15T07:45:49;67430.19;;;2.12;100.00
36354;BME280;22383;51.114;13.666;2023-03-15T07:48:17;67427.94;;;2.10;100.00
36354;BME280;22383;51.114;13.666;2023-03-15T07:50:45;67430.19;;;2.12;100.00
36354;BME280;22383;51.114;13.666;2023-03-15T07:53:12;67440.91;;;2.21;100.00
36354;BME280;22383;51.114;13.666;2023-03-15T07:55:40;67446.19;;;2.29;100.00
36354;BME280;22383;51.114;13.666;2023-03-15T07:58:07;67444.84;;;2.25;100.00
36354;BME280;22383;51.114;13.666;2023-03-15T08:00:35;67464.75;;;2.45;100.00
36354;BME280;22383;51.114;13.666;2023-03-15T08:03:03;67462.84;;;2.41;100.00
36354;BME280;22383;51.114;13.666;2023-03-15T08:05:33;67508.13;;;2.85;100.00
36354;BME280;22383;51.114;13.666;2023-03-15T08:08:00;67538.91;;;3.11;100.00
36354;BME280;22383;51.114;13.666;2023-03-15T08:10:28;67550.75;;;3.21;100.00
36354;BME280;22383;51.114;13.666;2023-03-15T08:12:55;67508.13;;;2.85;100.00
36354;BME280;22383;51.114;13.666;2023-03-15T08:15:23;67471.31;;;2.49;100.00
36354;BME280;22383;51.114;13.666;2023-03-15T08:17:50;67437.72;;;2.21;100.00
36354;BME280;22383;51.114;13.666;2023-03-15T08:20:18;67428.16;;;2.12;100.00
36354;BME280;22383;51.114;13.666;2023-03-15T08:22:46;67412.75;;;1.96;100.00
36354;BME280;22383;51.114;13.666;2023-03-15T08:25:17;67416.13;;;1.99;100.00
36354;BME280;22383;51.114;13.666;2023-03-15T08:27:45;67412.97;;;1.98;100.00
36354;BME280;22383;51.114;13.666;2023-03-15T08:30:13;67395.28;;;1.80;100.00
36354;BME280;22383;51.114;13.666;2023-03-15T08:32:42;67375.44;;;1.66;100.00
36354;BME280;22383;51.114;13.666;2023-03-15T08:35:12;67365.13;;;1.55;100.00
36354;BME280;22383;51.114;13.666;2023-03-15T08:37:42;67349.72;;;1.38;100.00
36354;BME280;22383;51.114;13.666;2023-03-15T08:40:15;67330.03;;;1.20;100.00
36354;BME280;22383;51.114;13.666;2023-03-15T08:42:45;67305.81;;;0.98;100.00
36354;BME280;22383;51.114;13.666;2023-03-15T08:45:12;67233.84;;;0.32;100.00
36354;BME280;22383;51.114;13.666;2023-03-15T08:47:41;67188.56;;;-0.07;100.00
36354;BME280;22383;51.114;13.666;2023-03-15T08:50:13;67175.06;;;-0.19;100.00
36354;BME280;22383;51.114;13.666;2023-03-15T08:52:42;67171.28;;;-0.27;100.00
36354;BME280;22383;51.114;13.666;2023-03-15T08:55:10;67165.09;;;-0.33;100.00
36354;BME280;22383;51.114;13.666;2023-03-15T08:57:40;67149.00;;;-0.45;100.00
36354;BME280;22383;51.114;13.666;2023-03-15T09:00:09;67129.91;;;-0.63;100.00
36354;BME280;22383;51.114;13.666;2023-03-15T09:02:50;67085.38;;;-0.61;100.00
36354;BME280;22383;51.114;13.666;2023-03-15T09:05:23;67148.44;;;-0.46;100.00
36354;BME280;22383;51.114;13.666;2023-03-15T09:07:51;67172.03;;;-0.24;100.00
36354;BME280;22383;51.114;13.666;2023-03-15T09:10:21;67202.41;;;0.04;100.00
36354;BME280;22383;51.114;13.666;2023-03-15T09:12:51;67227.88;;;0.29;100.00
36354;BME280;22383;51.114;13.666;2023-03-15T09:15:20;67253.16;;;0.52;100.00
36354;BME280;22383;51.114;13.666;2023-03-15T09:17:48;67275.47;;;0.70;100.00
36354;BME280;22383;51.114;13.666;2023-03-15T09:20:17;67293.47;;;0.87;100.00
36354;BME280;22383;51.114;13.666;2023-03-15T09:22:55;67320.81;;;1.09;100.00
36354;BME280;22383;51.114;13.666;2023-03-15T09:25:24;67331.50;;;1.19;100.00
36354;BME280;22383;51.114;13.666;2023-03-15T09:27:52;67344.09;;;1.33;100.00
36354;BME280;22383;51.114;13.666;2023-03-15T09:30:20;67352.19;;;1.43;100.00
36354;BME280;22383;51.114;13.666;2023-03-15T09:32:48;67357.25;;;1.47;100.00
36354;BME280;22383;51.114;13.666;2023-03-15T09:35:16;67366.81;;;1.56;100.00
36354;BME280;22383;51.114;13.666;2023-03-15T09:37:45;67364.91;;;1.52;100.00
36354;BME280;22383;51.114;13.666;2023-03-15T09:40:28;67368.47;;;1.58;100.00
36354;BME280;22383;51.114;13.666;2023-03-15T09:48:32;67369.06;;;1.58;100.00
36354;BME280;22383;51.114;13.666;2023-03-15T09:51:40;67365.88;;;1.58;100.00
36354;BME280;22383;51.114;13.666;2023-03-15T09:56:57;67397.19;;;1.84;100.00
36354;BME280;22383;51.114;13.666;2023-03-15T09:59:32;67407.66;;;1.91;100.00
36354;BME280;22383;51.114;13.666;2023-03-15T10:02:10;67416.13;;;1.99;100.00
36354;BME280;22383;51.114;13.666;2023-03-15T10:04:42;67417.66;;;2.05;100.00
36354;BME280;22383;51.114;13.666;2023-03-15T10:07:13;67406.19;;;1.92;100.00
36354;BME280;22383;51.114;13.666;2023-03-15T10:09:42;67410.50;;;1.94;100.00
36354;BME280;22383;51.114;13.666;2023-03-15T10:12:14;67403.38;;;1.89;100.00
36354;BME280;22383;51.114;13.666;2023-03-15T10:20:28;67382.19;;;1.73;100.00
36354;BME280;22383;51.114;13.666;2023-03-15T10:23:19;67380.47;;;1.64;100.00
36354;BME280;22383;51.114;13.666;2023-03-15T10:25:50;67369.06;;;1.58;100.00
36354;BME280;22383;51.114;13.666;2023-03-15T10:30:51;67363.78;;;1.51;100.00
36354;BME280;22383;51.114;13.666;2023-03-15T10:33:27;67368.47;;;1.58;100.00
36354;BME280;22383;51.114;13.666;2023-03-15T10:35:56;67385.94;;;1.74;100.00
36354;BME280;22383;51.114;13.666;2023-03-15T10:38:37;67396.44;;;1.81;100.00
36354;BME280;22383;51.114;13.666;2023-03-15T10:41:05;67396.06;;;1.83;100.00
36354;BME280;22383;51.114;13.666;2023-03-15T10:43:34;67411.63;;;1.95;100.00
36354;BME280;22383;51.114;13.666;2023-03-15T10:48:34;67401.47;;;1.85;100.00
36354;BME280;22383;51.114;13.666;2023-03-15T10:53:33;67526.50;;;2.99;100.00
36354;BME280;22383;51.114;13.666;2023-03-15T10:56:04;67522.97;;;3.01;100.00
36354;BME280;22383;51.114;13.666;2023-03-15T10:58:45;67522.56;;;2.96;100.00
36354;BME280;22383;51.114;13.666;2023-03-15T11:01:24;67513.34;;;2.85;100.00
36354;BME280;22383;51.114;13.666;2023-03-15T11:06:50;67541.72;;;3.13;100.00
36354;BME280;22383;51.114;13.666;2023-03-15T11:09:26;67513.41;;;2.92;100.00
36354;BME280;22383;51.114;13.666;2023-03-15T11:12:04;67523.34;;;2.99;100.00
36354;BME280;22383;51.114;13.666;2023-03-15T11:14:39;67511.50;;;2.88;100.00
36354;BME280;22383;51.114;13.666;2023-03-15T11:17:14;67541.94;;;3.16;100.00
36354;BME280;22383;51.114;13.666;2023-03-15T11:19:58;67537.78;;;3.10;100.00
36354;BME280;22383;51.114;13.666;2023-03-15T11:22:31;67514.31;;;2.91;100.00
36354;BME280;22383;51.114;13.666;2023-03-15T11:24:59;67505.88;;;2.83;100.00
36354;BME280;22383;51.114;13.666;2023-03-15T11:27:27;67488.47;;;2.74;100.00
36354;BME280;22383;51.114;13.666;2023-03-15T11:29:57;67518.84;;;2.95;100.00
36354;BME280;22383;51.114;13.666;2023-03-15T11:32:28;67530.84;;;3.08;100.00
36354;BME280;22383;51.114;13.666;2023-03-15T11:35:04;67530.84;;;3.08;100.00
36354;BME280;22383;51.114;13.666;2023-03-15T11:40:22;67483.91;;;2.63;100.00
36354;BME280;22383;51.114;13.666;2023-03-15T11:42:59;67505.31;;;2.82;100.00
36354;BME280;22383;51.114;13.666;2023-03-15T11:45:37;67519.75;;;2.93;100.00
36354;BME280;22383;51.114;13.666;2023-03-15T11:51:38;67574.63;;;3.46;100.00
36354;BME280;22383;51.114;13.666;2023-03-15T11:54:17;67539.50;;;3.18;100.00
36354;BME280;22383;51.114;13.666;2023-03-15T12:04:48;67464.19;;;2.45;100.00
36354;BME280;22383;51.114;13.666;2023-03-15T12:09:54;67493.69;;;2.74;100.00
36354;BME280;22383;51.114;13.666;2023-03-15T12:17:58;67543.63;;;3.17;100.00
36354;BME280;22383;51.114;13.666;2023-03-15T12:20:38;67537.63;;;3.14;100.00
36354;BME280;22383;51.114;13.666;2023-03-15T12:28:26;67528.75;;;3.01;100.00
36354;BME280;22383;51.114;13.666;2023-03-15T12:31:03;67543.63;;;3.17;100.00
36354;BME280;22383;51.114;13.666;2023-03-15T12:33:33;67571.59;;;3.40;100.00
36354;BME280;22383;51.114;13.666;2023-03-15T12:36:17;67606.53;;;3.72;100.00
36354;BME280;22383;51.114;13.666;2023-03-15T12:38:58;67626.50;;;3.93;100.00
36354;BME280;22383;51.114;13.666;2023-03-15T12:51:53;67613.16;;;3.83;100.00
36354;BME280;22383;51.114;13.666;2023-03-15T12:55:15;67629.66;;;3.93;100.00
36354;BME280;22383;51.114;13.666;2023-03-15T12:57:20;67649.41;;;4.11;100.00
36354;BME280;22383;51.114;13.666;2023-03-15T12:59:58;67695.28;;;4.55;100.00
36354;BME280;22383;51.114;13.666;2023-03-15T13:02:49;67742.88;;;5.01;100.00
36354;BME280;22383;51.114;13.666;2023-03-15T13:05:27;67807.63;;;5.58;100.00
36354;BME280;22383;51.114;13.666;2023-03-15T13:10:51;67785.97;;;5.43;100.00
36354;BME280;22383;51.114;13.666;2023-03-15T13:19:41;67671.97;;;4.32;100.00
36354;BME280;22383;51.114;13.666;2023-03-15T13:22:43;67678.16;;;4.38;100.00
36354;BME280;22383;51.114;13.666;2023-03-15T13:25:30;67780.53;;;5.33;100.00
36354;BME280;22383;51.114;13.666;2023-03-15T13:28:06;67837.75;;;5.87;100.00
36354;BME280;22383;51.114;13.666;2023-03-15T13:30:47;67857.31;;;6.03;100.00
36354;BME280;22383;51.114;13.666;2023-03-15T13:33:30;67849.00;;;5.91;100.00
36354;BME280;22383;51.114;13.666;2023-03-15T13:36:00;67805.91;;;5.56;100.00
36354;BME280;22383;51.114;13.666;2023-03-15T13:41:15;67700.78;;;4.65;100.00
36354;BME280;22383;51.114;13.666;2023-03-15T13:43:43;67714.47;;;4.73;100.00
36354;BME280;22383;51.114;13.666;2023-03-15T13:46:11;67708.06;;;4.65;100.00
36354;BME280;22383;51.114;13.666;2023-03-15T13:48:44;67651.66;;;4.13;100.00
36354;BME280;22383;51.114;13.666;2023-03-15T13:51:32;67640.03;;;4.05;100.00
36354;BME280;22383;51.114;13.666;2023-03-15T13:54:05;67640.78;;;4.08;100.00
36354;BME280;22383;51.114;13.666;2023-03-15T13:56:35;67637.94;;;3.98;100.00
36354;BME280;22383;51.114;13.666;2023-03-15T13:59:16;67661.09;;;4.27;100.00
36354;BME280;22383;51.114;13.666;2023-03-15T14:01:44;67690.00;;;4.48;100.00
36354;BME280;22383;51.114;13.666;2023-03-15T14:04:15;67686.63;;;4.45;100.00
36354;BME280;22383;51.114;13.666;2023-03-15T14:06:44;67689.09;;;4.50;100.00
36354;BME280;22383;51.114;13.666;2023-03-15T14:09:23;67686.28;;;4.47;100.00
36354;BME280;22383;51.114;13.666;2023-03-15T14:12:04;67700.19;;;4.58;100.00
36354;BME280;22383;51.114;13.666;2023-03-15T14:14:36;67729.91;;;4.89;100.00
36354;BME280;22383;51.114;13.666;2023-03-15T14:17:19;67758.69;;;5.16;100.00
36354;BME280;22383;51.114;13.666;2023-03-15T14:19:52;67760.03;;;5.19;100.00
36354;BME280;22383;51.114;13.666;2023-03-15T14:22:21;67755.31;;;5.13;100.00
36354;BME280;22383;51.114;13.666;2023-03-15T14:24:51;67704.69;;;4.62;100.00
36354;BME280;22383;51.114;13.666;2023-03-15T14:27:21;67683.81;;;4.43;100.00
36354;BME280;22383;51.114;13.666;2023-03-15T14:29:54;67698.88;;;4.61;100.00
36354;BME280;22383;51.114;13.666;2023-03-15T14:35:03;67730.63;;;4.85;100.00
36354;BME280;22383;51.114;13.666;2023-03-15T14:42:47;67736.84;;;4.91;100.00
36354;BME280;22383;51.114;13.666;2023-03-15T14:45:17;67739.47;;;4.91;100.00
36354;BME280;22383;51.114;13.666;2023-03-15T14:47:50;67720.31;;;4.81;100.00
36354;BME280;22383;51.114;13.666;2023-03-15T14:50:31;67737.03;;;4.93;100.00
36354;BME280;22383;51.114;13.666;2023-03-15T14:53:01;67755.88;;;5.13;100.00